Time;durP1;ratioP1;P1;durP2;ratioP2;P2;SDS_P1;SDS_P2;PMS_P1;PMS_P2;Temp;Humidity;BMP_temperature;BMP_pressure;BME280_temperature;BME280_humidity;BME280_pressure;Samples;Min_cycle;Max_cycle;Signal;HPM_P1;HPM_P2
2021/10/03 00:00:16;;;;;;;22.42;11.55;;;308.10;2304.00;;;;;;4992262;28;20157;-77
2021/10/03 00:02:43;;;;;;;22.75;12.68;;;308.10;2304.00;;;;;;4993863;28;20490;-77
2021/10/03 00:05:12;;;;;;;23.83;12.05;;;308.10;2304.00;;;;;;4993589;28;20034;-77
2021/10/03 00:07:45;;;;;;;21.45;11.43;;;308.00;2304.00;;;;;;4993908;28;20519;-77
2021/10/03 00:10:11;;;;;;;;;;;308.00;2304.00;;;;;;4993913;28;20150;-77
2021/10/03 00:12:38;;;;;;;22.77;10.50;;;308.00;2304.00;;;;;;4993937;28;19913;-78
2021/10/03 00:15:07;;;;;;;21.60;12.20;;;307.90;2304.00;;;;;;4993291;28;20046;-77
2021/10/03 00:17:33;;;;;;;23.83;12.00;;;307.90;2304.00;;;;;;4993880;28;20467;-76
2021/10/03 00:20:00;;;;;;;21.63;10.23;;;307.90;2304.00;;;;;;4993601;28;20113;-79
2021/10/03 00:22:26;;;;;;;19.92;9.77;;;307.90;2304.00;;;;;;4993700;28;20018;-79
2021/10/03 00:24:52;;;;;;;16.20;10.35;;;307.90;2304.00;;;;;;4993614;28;20463;-77
2021/10/03 00:27:18;;;;;;;21.83;11.52;;;307.80;2304.00;;;;;;4993980;28;20033;-77
2021/10/03 00:29:44;;;;;;;17.67;9.25;;;307.70;2304.00;;;;;;4993131;28;20034;-78
2021/10/03 00:32:09;;;;;;;18.05;9.90;;;307.70;2304.00;;;;;;4993608;28;20426;-79
2021/10/03 00:34:35;;;;;;;13.57;9.07;;;307.70;2304.00;;;;;;4993488;28;20479;-78
2021/10/03 00:37:01;;;;;;;15.77;9.13;;;307.60;2304.00;;;;;;4993987;28;20027;-79
2021/10/03 00:39:27;;;;;;;19.98;8.95;;;307.60;2304.00;;;;;;4993540;28;20030;-77
2021/10/03 00:41:53;;;;;;;15.85;9.02;;;307.60;2304.00;;;;;;4993443;28;20030;-77
2021/10/03 00:44:19;;;;;;;15.25;9.35;;;307.50;2304.00;;;;;;4991889;28;20045;-77
2021/10/03 00:46:45;;;;;;;12.25;8.75;;;307.50;2304.00;;;;;;4993540;28;20530;-77
2021/10/03 00:49:11;;;;;;;11.80;7.88;;;307.50;2304.00;;;;;;4993269;28;20121;-77
2021/10/03 00:51:37;;;;;;;13.43;8.18;;;307.30;2304.00;;;;;;4994152;28;20129;-77
2021/10/03 00:54:03;;;;;;;15.13;7.93;;;307.40;2304.00;;;;;;4997013;28;20026;-78
2021/10/03 00:56:29;;;;;;;15.27;8.80;;;307.40;2304.00;;;;;;4997119;28;20081;-78
2021/10/03 00:58:56;;;;;;;13.75;7.93;;;307.40;2304.00;;;;;;4996495;28;20089;-77
2021/10/03 01:01:22;;;;;;;11.38;6.78;;;307.40;2304.00;;;;;;4997152;28;20034;-79
2021/10/03 01:03:49;;;;;;;14.43;8.13;;;307.40;2304.00;;;;;;4996997;28;20026;-78
2021/10/03 01:06:15;;;;;;;13.75;8.38;;;307.40;2304.00;;;;;;4997163;28;20026;-79
2021/10/03 01:08:41;;;;;;;14.95;6.80;;;307.40;2304.00;;;;;;4996804;28;20554;-79
2021/10/03 01:11:07;;;;;;;11.85;6.75;;;307.40;2304.00;;;;;;4997088;28;20106;-77
2021/10/03 01:13:33;;;;;;;13.20;6.25;;;307.40;2304.00;;;;;;4996551;28;20026;-78
2021/10/03 01:16:00;;;;;;;11.65;7.68;;;307.40;2304.00;;;;;;4996762;28;20474;-78
2021/10/03 01:18:26;;;;;;;10.82;7.43;;;307.40;2304.00;;;;;;4996665;28;20018;-78
2021/10/03 01:20:52;;;;;;;11.73;7.18;;;307.40;2304.00;;;;;;4995378;28;20049;-77
2021/10/03 01:23:18;;;;;;;12.35;7.45;;;307.40;2304.00;;;;;;4996634;28;20023;-77
2021/10/03 01:25:47;;;;;;;13.40;6.93;;;307.30;2304.00;;;;;;4996331;28;20073;-77
2021/10/03 01:28:17;;;;;;;14.40;8.13;;;307.30;2304.00;;;;;;4996353;28;20022;-77
2021/10/03 01:30:46;;;;;;;10.88;7.35;;;307.30;2304.00;;;;;;4996271;28;20113;-77
2021/10/03 01:33:12;;;;;;;11.32;7.00;;;307.20;2304.00;;;;;;4996560;28;20105;-77
2021/10/03 01:35:38;;;;;;;10.23;7.35;;;307.20;2304.00;;;;;;4995248;28;20627;-77
2021/10/03 01:38:07;;;;;;;9.55;5.65;;;282.50;2278.40;;;;;;4996509;28;20481;-78
2021/10/03 01:40:33;;;;;;;14.05;6.28;;;282.50;2278.40;;;;;;4996302;28;20068;-77
2021/10/03 01:42:59;;;;;;;8.60;6.07;;;282.50;2278.40;;;;;;4995107;28;20490;-77
2021/10/03 01:45:26;;;;;;;8.63;5.93;;;282.50;2278.40;;;;;;4995998;28;20386;-77
2021/10/03 01:48:07;;;;;;;7.28;5.53;;;282.40;2278.40;;;;;;4996380;28;20034;-77
2021/10/03 01:50:48;;;;;;;10.27;6.60;;;282.50;2278.40;;;;;;4996103;28;20074;-77
2021/10/03 01:53:19;;;;;;;17.60;7.47;;;282.50;2278.40;;;;;;4994873;28;20026;-77
2021/10/03 01:55:46;;;;;;;11.65;6.90;;;282.40;2278.40;;;;;;4994529;28;20070;-77
2021/10/03 01:58:15;;;;;;;12.73;7.10;;;282.40;2278.40;;;;;;4995982;28;20035;-77
2021/10/03 02:00:44;;;;;;;11.85;7.07;;;282.40;2278.40;;;;;;4995904;28;20037;-78
2021/10/03 02:03:09;;;;;;;10.77;7.93;;;282.40;2278.40;;;;;;4995609;28;20498;-77
2021/10/03 02:05:43;;;;;;;12.95;7.85;;;282.30;2278.40;;;;;;4994684;28;20105;-80
2021/10/03 02:08:10;;;;;;;12.68;7.65;;;282.30;2278.40;;;;;;4996082;28;20033;-80
2021/10/03 02:10:38;;;;;;;11.80;7.40;;;282.30;2278.40;;;;;;4995645;28;20124;-78
2021/10/03 02:13:05;;;;;;;11.88;7.78;;;282.30;2278.40;;;;;;4994430;28;20034;-77
2021/10/03 02:15:32;;;;;;;14.45;7.25;;;282.20;2278.40;;;;;;4995671;28;20109;-77
2021/10/03 02:17:58;;;;;;;15.68;7.45;;;282.20;2278.40;;;;;;4995809;28;20145;-79
2021/10/03 02:20:25;;;;;;;13.95;7.72;;;282.50;2278.40;;;;;;4995534;28;20509;-77
2021/10/03 02:22:53;;;;;;;12.15;7.25;;;282.10;2278.40;;;;;;4995448;28;20030;-78
2021/10/03 02:25:19;;;;;;;10.82;7.43;;;282.00;2278.40;;;;;;4995510;28;20027;-76
2021/10/03 02:27:45;;;;;;;11.13;6.03;;;282.00;2278.40;;;;;;4995333;28;20093;-76
2021/10/03 02:30:11;;;;;;;14.15;8.35;;;282.00;2278.40;;;;;;4994967;28;20042;-76
2021/10/03 02:32:38;;;;;;;11.85;6.55;;;282.00;2278.40;;;;;;4995179;28;20037;-76
2021/10/03 02:35:06;;;;;;;13.38;6.57;;;282.00;2278.40;;;;;;4995396;28;20105;-76
2021/10/03 02:37:32;;;;;;;10.30;7.15;;;282.00;2278.40;;;;;;4995211;28;20497;-76
2021/10/03 02:39:58;;;;;;;12.18;6.88;;;282.00;2278.40;;;;;;4995451;28;20026;-76
2021/10/03 02:42:25;;;;;;;13.48;8.35;;;281.90;2278.40;;;;;;4995288;28;20019;-76
2021/10/03 02:44:51;;;;;;;14.38;7.55;;;281.90;2278.40;;;;;;4995044;28;20504;-77
2021/10/03 02:47:17;;;;;;;13.43;7.97;;;281.90;2278.40;;;;;;4994960;28;20030;-76
2021/10/03 02:49:44;;;;;;;14.68;7.55;;;281.90;2278.40;;;;;;4994948;28;20038;-76
2021/10/03 02:52:12;;;;;;;13.45;8.25;;;281.80;2278.40;;;;;;4994813;28;20038;-77
2021/10/03 02:54:39;;;;;;;18.00;7.38;;;281.80;2278.40;;;;;;4995086;28;20113;-76
2021/10/03 02:57:06;;;;;;;10.82;6.72;;;281.70;2278.40;;;;;;4994411;28;20157;-76
2021/10/03 02:59:33;;;;;;;11.38;6.63;;;281.60;2278.40;;;;;;4994629;28;20105;-76
2021/10/03 03:01:59;;;;;;;9.85;6.25;;;281.60;2278.40;;;;;;4994560;28;20022;-76
2021/10/03 03:04:25;;;;;;;11.27;5.88;;;256.90;2252.80;;;;;;4994813;28;20037;-76
2021/10/03 03:06:51;;;;;;;10.75;6.10;;;256.80;2252.80;;;;;;4994814;28;20023;-76
2021/10/03 03:09:17;;;;;;;10.02;5.65;;;256.70;2252.80;;;;;;4994917;28;20398;-76
2021/10/03 03:11:43;;;;;;;10.15;6.82;;;256.70;2252.80;;;;;;4994607;28;20034;-77
2021/10/03 03:14:09;;;;;;;8.82;5.40;;;256.70;2252.80;;;;;;4992614;28;20030;-77
2021/10/03 03:16:42;;;;;;;11.50;6.28;;;256.70;2252.80;;;;;;4994267;28;20032;-76
2021/10/03 03:19:08;;;;;;;10.25;6.13;;;256.70;2252.80;;;;;;4993247;28;20044;-76
2021/10/03 03:21:34;;;;;;;8.20;5.63;;;256.70;2252.80;;;;;;4994247;28;20030;-76
2021/10/03 03:24:00;;;;;;;9.55;6.30;;;256.60;2252.80;;;;;;4994421;28;20030;-76
2021/10/03 03:26:25;;;;;;;9.18;6.57;;;256.50;2252.80;;;;;;4994123;28;20042;-76
2021/10/03 03:28:51;;;;;;;9.05;5.97;;;256.60;2252.80;;;;;;4994002;28;20487;-76
2021/10/03 03:31:17;;;;;;;11.40;5.95;;;256.60;2252.80;;;;;;4994084;28;20030;-76
2021/10/03 03:33:42;;;;;;;10.73;6.20;;;256.60;2252.80;;;;;;4992909;28;20030;-76
2021/10/03 03:36:08;;;;;;;9.35;5.80;;;256.60;2252.80;;;;;;4994196;28;20035;-76
2021/10/03 03:38:36;;;;;;;14.75;6.47;;;256.60;2252.80;;;;;;4994379;28;20030;-76
2021/10/03 03:41:05;;;;;;;12.93;6.50;;;256.70;2252.80;;;;;;4992730;28;20026;-76
2021/10/03 03:43:31;;;;;;;10.77;6.82;;;256.60;2252.80;;;;;;4992436;28;20414;-76
2021/10/03 03:45:56;;;;;;;12.48;8.02;;;256.70;2252.80;;;;;;4992711;28;20027;-76
2021/10/03 03:48:22;;;;;;;11.77;7.18;;;256.70;2252.80;;;;;;4994043;28;20466;-76
2021/10/03 03:50:48;;;;;;;13.25;7.05;;;256.70;2252.80;;;;;;4994005;28;20163;-76
2021/10/03 03:53:14;;;;;;;12.02;6.47;;;256.70;2252.80;;;;;;4993939;28;20474;-76
2021/10/03 03:55:39;;;;;;;11.57;7.80;;;256.70;2252.80;;;;;;4993774;28;20479;-76
2021/10/03 03:58:05;;;;;;;13.63;6.22;;;256.70;2252.80;;;;;;4993703;28;20034;-76
2021/10/03 04:00:31;;;;;;;10.88;7.68;;;256.70;2252.80;;;;;;4993836;28;20041;-76
2021/10/03 04:02:57;;;;;;;9.45;6.75;;;256.60;2252.80;;;;;;4992378;28;20085;-76
2021/10/03 04:05:23;;;;;;;10.57;6.47;;;256.70;2252.80;;;;;;4992591;28;20057;-76
2021/10/03 04:07:48;;;;;;;10.30;6.53;;;256.60;2252.80;;;;;;4993752;28;20031;-76
2021/10/03 04:10:14;;;;;;;11.43;7.28;;;256.60;2252.80;;;;;;4993875;28;20498;-76
2021/10/03 04:12:40;;;;;;;9.30;6.10;;;256.60;2252.80;;;;;;4993953;28;20045;-76
2021/10/03 04:15:08;;;;;;;9.73;6.32;;;256.60;2252.80;;;;;;4993680;28;20061;-76
2021/10/03 04:17:34;;;;;;;14.98;7.22;;;256.60;2252.80;;;;;;4993574;28;20030;-76
2021/10/03 04:20:00;;;;;;;12.02;5.97;;;256.60;2252.80;;;;;;4993801;28;20117;-77
2021/10/03 04:22:26;;;;;;;10.70;7.07;;;256.60;2252.80;;;;;;4992269;28;20399;-77
2021/10/03 04:24:52;;;;;;;8.95;5.90;;;256.60;2252.80;;;;;;4993891;28;20037;-76
2021/10/03 04:27:18;;;;;;;10.93;6.57;;;256.60;2252.80;;;;;;4995327;28;20045;-77
2021/10/03 04:29:44;;;;;;;13.15;6.68;;;256.60;2252.80;;;;;;4997511;28;20128;-76
2021/10/03 04:32:10;;;;;;;13.57;6.45;;;256.60;2252.80;;;;;;4996136;28;20030;-76
2021/10/03 04:34:35;;;;;;;12.52;6.20;;;256.60;2252.80;;;;;;4997639;28;20030;-76
2021/10/03 04:37:01;;;;;;;9.90;7.05;;;256.60;2252.80;;;;;;4997420;28;20775;-76
2021/10/03 04:39:28;;;;;;;10.77;6.07;;;256.60;2252.80;;;;;;4997753;28;20049;-76
2021/10/03 04:41:54;;;;;;;14.50;7.53;;;256.60;2252.80;;;;;;4998247;28;20522;-77
2021/10/03 04:44:20;;;;;;;10.18;6.72;;;256.60;2252.80;;;;;;4999235;28;20394;-76
2021/10/03 04:46:46;;;;;;;14.10;7.45;;;256.50;2252.80;;;;;;4999811;28;20030;-76
2021/10/03 04:49:12;;;;;;;16.23;8.68;;;256.50;2252.80;;;;;;5001128;28;20089;-77
2021/10/03 04:51:37;;;;;;;14.07;7.68;;;256.40;2252.80;;;;;;5002076;28;20126;-77
2021/10/03 04:54:03;;;;;;;12.93;6.63;;;256.40;2252.80;;;;;;5000527;28;20127;-77
2021/10/03 04:56:29;;;;;;;13.45;7.00;;;256.40;2252.80;;;;;;4997864;28;20061;-77
2021/10/03 04:58:55;;;;;;;13.27;7.20;;;256.50;2252.80;;;;;;4996623;28;20041;-77
2021/10/03 05:01:21;;;;;;;12.35;7.40;;;256.40;2252.80;;;;;;4997388;28;20031;-77
2021/10/03 05:03:47;;;;;;;18.77;7.97;;;256.40;2252.80;;;;;;4996032;28;20092;-77
2021/10/03 05:06:12;;;;;;;13.95;7.80;;;256.50;2252.80;;;;;;4995734;28;20426;-76
2021/10/03 05:08:38;;;;;;;8.15;5.65;;;256.40;2252.80;;;;;;4997161;28;20029;-77
2021/10/03 05:11:05;;;;;;;12.52;6.75;;;256.50;2252.80;;;;;;4995775;28;20034;-77
2021/10/03 05:13:31;;;;;;;10.32;7.13;;;256.50;2252.80;;;;;;4996914;28;20080;-76
2021/10/03 05:15:58;;;;;;;11.75;7.70;;;256.60;2252.80;;;;;;4996779;28;20023;-77
2021/10/03 05:18:24;;;;;;;15.77;8.05;;;256.50;2252.80;;;;;;4997121;28;20470;-77
2021/10/03 05:20:50;;;;;;;17.67;7.80;;;256.60;2252.80;;;;;;4996978;28;20027;-76
2021/10/03 05:23:16;;;;;;;18.48;10.23;;;256.60;2252.80;;;;;;4995607;28;20475;-77
2021/10/03 05:25:41;;;;;;;24.17;12.10;;;256.60;2252.80;;;;;;4997359;28;20113;-78
2021/10/03 05:28:07;;;;;;;32.33;15.13;;;256.60;2252.80;;;;;;4997186;28;20026;-77
2021/10/03 05:30:33;;;;;;;30.98;16.60;;;256.70;2252.80;;;;;;4995068;28;20050;-79
2021/10/03 05:32:59;;;;;;;40.40;17.80;;;256.70;2252.80;;;;;;4996571;28;20030;-77
2021/10/03 05:35:26;;;;;;;25.10;13.20;;;256.70;2252.80;;;;;;4997096;28;20426;-78
2021/10/03 05:37:51;;;;;;;25.63;11.95;;;256.70;2252.80;;;;;;4996370;28;20038;-77
2021/10/03 05:40:18;;;;;;;16.17;8.55;;;256.80;2252.80;;;;;;4996543;28;20030;-79
2021/10/03 05:42:44;;;;;;;17.45;9.95;;;256.80;2252.80;;;;;;4997066;28;20023;-77
2021/10/03 05:45:10;;;;;;;20.25;11.57;;;256.80;2252.80;;;;;;4996348;28;20028;-78
2021/10/03 05:47:36;;;;;;;22.70;10.27;;;256.80;2252.80;;;;;;4996518;28;20027;-79
2021/10/03 05:50:04;;;;;;;18.23;10.02;;;256.90;2252.80;;;;;;4996408;28;20048;-79
2021/10/03 05:52:30;;;;;;;23.95;12.10;;;256.90;2252.80;;;;;;4996212;28;20050;-78
2021/10/03 05:54:56;;;;;;;23.90;12.68;;;256.90;2252.80;;;;;;4996149;28;20463;-80
2021/10/03 05:57:21;;;;;;;22.95;11.52;;;281.60;2278.40;;;;;;4995987;28;20101;-78
2021/10/03 05:59:47;;;;;;;20.25;12.77;;;281.60;2278.40;;;;;;4995880;28;20031;-78
2021/10/03 06:02:13;;;;;;;19.65;11.70;;;281.60;2278.40;;;;;;4995852;28;20038;-76
2021/10/03 06:04:38;;;;;;;19.90;10.80;;;281.60;2278.40;;;;;;4996010;28;20109;-76
2021/10/03 06:07:04;;;;;;;20.00;11.10;;;281.60;2278.40;;;;;;4994668;28;20034;-76
2021/10/03 06:09:30;;;;;;;18.30;10.13;;;256.90;2252.80;;;;;;4994704;28;20372;-77
2021/10/03 06:11:56;;;;;;;19.08;10.52;;;256.80;2252.80;;;;;;4995594;28;20467;-76
2021/10/03 06:14:22;;;;;;;21.02;12.02;;;256.90;2252.80;;;;;;4995511;28;20438;-77
2021/10/03 06:16:48;;;;;;;25.85;14.98;;;281.60;2278.40;;;;;;4995517;28;20022;-76
2021/10/03 06:19:15;;;;;;;21.83;13.25;;;281.60;2278.40;;;;;;4995665;28;20027;-77
2021/10/03 06:21:40;;;;;;;19.60;12.18;;;281.70;2278.40;;;;;;4996054;28;20101;-78
2021/10/03 06:24:07;;;;;;;21.77;11.23;;;281.80;2278.40;;;;;;4995862;28;20046;-78
2021/10/03 06:26:34;;;;;;;12.25;8.27;;;281.90;2278.40;;;;;;4993974;28;20469;-77
2021/10/03 06:28:59;;;;;;;15.93;8.63;;;282.00;2278.40;;;;;;4995394;28;20030;-77
2021/10/03 06:31:25;;;;;;;15.48;9.23;;;282.00;2278.40;;;;;;4995169;28;20036;-77
2021/10/03 06:33:51;;;;;;;15.48;8.52;;;282.10;2278.40;;;;;;4995752;28;20463;-80
2021/10/03 06:36:17;;;;;;;17.17;8.98;;;282.20;2278.40;;;;;;4995355;28;20396;-77
2021/10/03 06:38:42;;;;;;;11.77;8.20;;;282.30;2278.40;;;;;;4995396;28;20054;-78
2021/10/03 06:41:08;;;;;;;16.15;8.88;;;282.50;2278.40;;;;;;4996307;28;20455;-80
2021/10/03 06:43:38;;;;;;;16.02;9.52;;;282.50;2278.40;;;;;;4995189;28;20026;-79
2021/10/03 06:46:08;;;;;;;18.35;10.43;;;307.20;2304.00;;;;;;4995299;28;20498;-80
2021/10/03 06:48:33;;;;;;;11.45;7.07;;;307.30;2304.00;;;;;;4995234;28;20018;-79
2021/10/03 06:51:00;;;;;;;13.00;8.02;;;307.40;2304.00;;;;;;4994282;28;20130;-80
2021/10/03 06:53:26;;;;;;;11.80;7.78;;;307.70;2304.00;;;;;;4995312;28;20026;-81
2021/10/03 06:55:53;;;;;;;11.70;8.07;;;307.60;2304.00;;;;;;4994710;28;20045;-79
2021/10/03 06:58:20;;;;;;;11.43;7.38;;;307.70;2304.00;;;;;;4994902;28;20394;-79
2021/10/03 07:00:45;;;;;;;17.50;9.20;;;307.80;2304.00;;;;;;4994876;28;20026;-80
2021/10/03 07:03:11;;;;;;;12.43;7.57;;;307.90;2304.00;;;;;;4994973;28;20093;-78
2021/10/03 07:05:37;;;;;;;12.60;8.25;;;308.10;2304.00;;;;;;4995161;28;20034;-84
2021/10/03 07:08:05;;;;;;;12.27;7.22;;;332.80;2329.60;;;;;;4995629;28;20030;-85
2021/10/03 07:10:33;;;;;;;13.82;8.23;;;333.00;2329.60;;;;;;4996089;28;20038;-83
2021/10/03 07:12:58;;;;;;;17.63;8.65;;;333.10;2329.60;;;;;;4995665;28;20027;-80
2021/10/03 07:15:24;;;;;;;12.68;8.70;;;333.20;2329.60;;;;;;4995173;28;20049;-81
2021/10/03 07:17:50;;;;;;;14.13;9.52;;;333.30;2329.60;;;;;;4995172;28;20057;-81
2021/10/03 07:20:16;;;;;;;13.02;9.60;;;333.40;2329.60;;;;;;4992511;28;20023;-80
2021/10/03 07:22:42;;;;;;;11.30;7.47;;;333.60;2329.60;;;;;;4993027;28;20034;-81
2021/10/03 07:25:09;;;;;;;13.93;6.85;;;333.70;2329.60;;;;;;4992287;28;20186;-79
2021/10/03 07:27:34;;;;;;;10.98;8.00;;;358.40;2329.60;;;;;;4994490;28;20034;-80
2021/10/03 07:30:00;;;;;;;12.52;6.30;;;358.50;2329.60;;;;;;4994405;28;20042;-81
2021/10/03 07:32:27;;;;;;;10.43;6.97;;;358.70;2329.60;;;;;;4993735;28;20073;-80
2021/10/03 07:34:53;;;;;;;8.73;6.28;;;358.80;2304.00;;;;;;4993341;28;20030;-80
2021/10/03 07:37:19;;;;;;;10.95;6.75;;;358.90;2278.40;;;;;;4993370;28;20065;-79
2021/10/03 07:39:45;;;;;;;10.18;6.68;;;359.00;2252.80;;;;;;4992857;28;20022;-82
2021/10/03 07:42:11;;;;;;;13.73;6.97;;;359.10;2252.80;;;;;;4993157;28;20042;-81
2021/10/03 07:44:37;;;;;;;10.20;6.28;;;359.20;2176.00;;;;;;4994290;28;20037;-85
2021/10/03 07:47:03;;;;;;;10.35;7.22;;;359.30;2201.60;;;;;;4994582;28;20042;-80
2021/10/03 07:49:30;;;;;;;9.43;6.50;;;384.10;2176.00;;;;;;4993038;28;20046;-81
2021/10/03 07:51:56;;;;;;;12.05;7.65;;;384.20;2176.00;;;;;;4993901;28;20097;-78
2021/10/03 07:54:22;;;;;;;10.10;7.45;;;384.40;2176.00;;;;;;4994180;28;20110;-78
2021/10/03 07:56:48;;;;;;;9.95;6.53;;;384.50;2124.80;;;;;;4996000;28;20061;-80
2021/10/03 07:59:14;;;;;;;14.50;7.53;;;384.60;2124.80;;;;;;4994306;28;20114;-89
2021/10/03 08:01:39;;;;;;;10.13;7.55;;;384.80;2124.80;;;;;;4992307;28;20153;-88
2021/10/03 08:04:05;;;;;;;13.18;7.72;;;384.90;2124.80;;;;;;4993167;28;20062;-88
2021/10/03 08:06:32;;;;;;;10.68;6.75;;;409.60;2099.20;;;;;;4993575;28;20030;-87
2021/10/03 08:08:58;;;;;;;13.02;9.13;;;409.70;2124.80;;;;;;4993690;28;20037;-85
2021/10/03 08:11:25;;;;;;;12.52;7.82;;;409.70;2022.40;;;;;;4993998;28;20073;-87
2021/10/03 08:13:51;;;;;;;9.57;7.30;;;409.80;2073.60;;;;;;4993557;28;20023;-86
2021/10/03 08:16:18;;;;;;;10.52;7.07;;;410.00;2022.40;;;;;;4993389;28;20029;-81
2021/10/03 08:18:45;;;;;;;12.77;7.53;;;410.20;1996.80;;;;;;4994539;28;20475;-84
2021/10/03 08:21:12;;;;;;;13.55;7.35;;;410.40;1945.60;;;;;;4996808;28;20034;-83
2021/10/03 08:23:38;;;;;;;12.68;8.55;;;410.40;1894.40;;;;;;4992513;28;20141;-83
2021/10/03 08:26:04;;;;;;;12.30;7.93;;;410.50;1894.40;;;;;;4994355;28;20125;-86
2021/10/03 08:28:29;;;;;;;13.23;7.72;;;435.20;1894.40;;;;;;4993754;28;20033;-82
2021/10/03 08:30:55;;;;;;;13.07;7.55;;;435.40;1868.80;;;;;;4993865;28;20065;-79
2021/10/03 08:33:21;;;;;;;13.20;8.95;;;435.50;1843.20;;;;;;4995158;28;20040;-82
2021/10/03 08:35:47;;;;;;;11.55;6.75;;;435.60;1843.20;;;;;;4993875;28;20495;-80
2021/10/03 08:38:13;;;;;;;14.70;7.63;;;435.60;1817.60;;;;;;4993939;28;20379;-80
2021/10/03 08:40:38;;;;;;;16.50;7.63;;;435.70;1843.20;;;;;;4993476;28;20057;-84
2021/10/03 08:43:08;;;;;;;17.17;9.43;;;435.70;1843.20;;;;;;4993318;28;20022;-74
2021/10/03 08:45:38;;;;;;;10.20;7.60;;;435.90;1843.20;;;;;;4993462;28;20399;-75
2021/10/03 08:48:07;;;;;;;15.45;8.75;;;436.10;1843.20;;;;;;4993467;28;20541;-74
2021/10/03 08:50:32;;;;;;;11.68;7.45;;;460.90;1843.20;;;;;;4993275;28;20046;-76
2021/10/03 08:52:58;;;;;;;13.90;8.07;;;461.00;1843.20;;;;;;4991963;28;20030;-74
2021/10/03 08:55:24;;;;;;;13.68;7.55;;;461.00;1843.20;;;;;;4993131;28;20026;-74
2021/10/03 08:57:50;;;;;;;17.20;9.02;;;461.30;1817.60;;;;;;4992161;28;20053;-88
2021/10/03 09:00:21;;;;;;;10.07;7.00;;;461.40;1843.20;;;;;;4992286;28;20501;-84
2021/10/03 09:02:55;;;;;;;12.98;8.48;;;461.60;1766.40;;;;;;4976664;28;20015;-75
2021/10/03 09:05:22;;;;;;;12.55;8.35;;;486.40;1843.20;;;;;;4984374;28;20066;-77
2021/10/03 09:08:08;;;;;;;13.63;7.65;;;486.60;1792.00;;;;;;4982517;28;20019;-86
2021/10/03 09:10:59;;;;;;;13.57;7.00;;;486.80;1766.40;;;;;;4984273;28;20081;-84
2021/10/03 09:13:31;;;;;;;12.23;7.55;;;487.00;1740.80;;;;;;5000244;28;20383;-78
2021/10/03 09:16:08;;;;;;;10.65;7.43;;;487.10;1715.20;;;;;;4998141;28;20057;-82
2021/10/03 09:18:41;;;;;;;12.20;7.72;;;487.20;1664.00;;;;;;4997517;28;20356;-83
2021/10/03 09:21:07;;;;;;;;;;;487.30;1612.80;;;;;;4998598;28;20022;-81
2021/10/03 09:23:33;;;;;;;11.88;7.75;;;512.00;1638.40;;;;;;4998243;28;19906;-83
2021/10/03 09:25:59;;;;;;;10.25;7.30;;;512.10;1587.20;;;;;;4997382;28;20030;-84
2021/10/03 09:28:33;;;;;;;14.10;7.85;;;512.20;1612.80;;;;;;4997260;28;20045;-88
2021/10/03 09:31:07;;;;;;;10.20;7.32;;;512.40;1587.20;;;;;;4998852;28;20038;-86
2021/10/03 09:33:49;;;;;;;13.52;8.73;;;512.50;1612.80;;;;;;4998828;28;20491;-88
2021/10/03 09:36:21;;;;;;;11.07;8.05;;;512.70;1587.20;;;;;;4999222;28;20086;-86
2021/10/03 09:38:57;;;;;;;10.93;8.07;;;512.60;1587.20;;;;;;4997483;28;20022;-85
2021/10/03 09:41:27;;;;;;;12.13;8.45;;;512.70;1587.20;;;;;;4997091;28;20023;-88
2021/10/03 09:44:11;;;;;;;12.27;7.65;;;512.90;1561.60;;;;;;4998407;28;20019;-87
2021/10/03 09:46:51;;;;;;;10.82;7.53;;;537.70;1638.40;;;;;;4996875;28;20486;-83
2021/10/03 09:49:29;;;;;;;11.57;9.00;;;537.80;1561.60;;;;;;4996918;28;20034;-82
2021/10/03 09:51:56;;;;;;;14.45;7.07;;;537.90;1561.60;;;;;;4995253;28;20398;-83
2021/10/03 09:54:24;;;;;;;14.60;7.80;;;538.20;1612.80;;;;;;4996145;28;20015;-76
2021/10/03 09:56:52;;;;;;;11.95;7.40;;;538.40;1536.00;;;;;;4994592;28;20054;-76
2021/10/03 09:59:18;;;;;;;10.40;7.30;;;538.50;1510.40;;;;;;4996110;28;20034;-77
2021/10/03 10:01:46;;;;;;;9.90;6.82;;;563.20;1536.00;;;;;;4995950;28;20034;-75
2021/10/03 10:04:20;;;;;;;12.55;8.23;;;563.40;1536.00;;;;;;4995934;28;20029;-76
2021/10/03 10:06:48;;;;;;;9.70;7.93;;;563.60;1561.60;;;;;;4995875;28;20038;-75
2021/10/03 10:09:22;;;;;;;17.92;8.07;;;563.60;1510.40;;;;;;4995894;28;20080;-76
2021/10/03 10:12:01;;;;;;;12.82;7.40;;;563.70;1510.40;;;;;;4995819;28;20031;-77
2021/10/03 10:14:33;;;;;;;13.75;8.55;;;564.00;1536.00;;;;;;4995381;28;20382;-75
2021/10/03 10:17:02;;;;;;;15.52;9.57;;;564.10;1510.40;;;;;;4995687;28;20309;-74
2021/10/03 10:19:29;;;;;;;11.80;8.00;;;588.90;1510.40;;;;;;4995282;28;20026;-76
2021/10/03 10:22:15;;;;;;;13.85;8.60;;;589.10;1510.40;;;;;;4995723;28;20015;-75
2021/10/03 10:24:46;;;;;;;12.65;8.30;;;589.20;1484.80;;;;;;4995341;28;20037;-75
2021/10/03 10:27:20;;;;;;;14.80;8.20;;;589.30;1484.80;;;;;;4995480;28;20045;-77
2021/10/03 10:29:51;;;;;;;14.30;9.00;;;589.60;1510.40;;;;;;4994914;28;20082;-77
2021/10/03 10:32:17;;;;;;;10.88;7.55;;;589.40;1433.60;;;;;;4995435;28;20018;-77
2021/10/03 10:35:08;;;;;;;12.07;7.45;;;589.50;1484.80;;;;;;4995197;28;20037;-77
2021/10/03 10:37:57;;;;;;;13.40;7.20;;;589.50;1459.20;;;;;;4995545;28;20053;-77
2021/10/03 10:40:25;;;;;;;11.85;7.47;;;589.40;1459.20;;;;;;4993171;28;20066;-76
2021/10/03 10:42:54;;;;;;;11.90;8.18;;;589.60;1484.80;;;;;;4994206;28;20039;-74
2021/10/03 10:45:33;;;;;;;11.68;7.88;;;614.40;1433.60;;;;;;4991161;28;20089;-78
2021/10/03 10:48:11;;;;;;;11.80;7.07;;;614.50;1484.80;;;;;;4987096;28;20037;-80
2021/10/03 10:50:40;;;;;;;10.10;7.38;;;614.60;1382.40;;;;;;4974300;28;20041;-76
2021/10/03 10:53:24;;;;;;;12.32;7.18;;;614.60;1408.00;;;;;;4973415;28;20054;-80
2021/10/03 10:56:11;;;;;;;14.77;8.02;;;614.60;1382.40;;;;;;4974593;28;20035;-79
2021/10/03 10:59:02;;;;;;;11.48;7.68;;;614.80;1408.00;;;;;;4979517;28;20478;-76
2021/10/03 11:01:30;;;;;;;8.68;7.70;;;615.10;1382.40;;;;;;4988532;28;20094;-76
2021/10/03 11:04:01;;;;;;;10.38;8.07;;;615.10;1331.20;;;;;;4991736;28;20060;-78
2021/10/03 11:06:26;;;;;;;12.75;6.28;;;615.00;1356.80;;;;;;4990565;28;20192;-78
2021/10/03 11:08:58;;;;;;;12.35;7.60;;;615.20;1356.80;;;;;;4974135;28;20495;-77
2021/10/03 11:11:26;;;;;;;10.65;7.28;;;615.10;1305.60;;;;;;4973001;28;20046;-75
2021/10/03 11:13:55;;;;;;;11.45;6.25;;;615.10;1356.80;;;;;;4972307;28;20035;-75
2021/10/03 11:16:37;;;;;;;10.40;6.60;;;615.10;1331.20;;;;;;4974547;28;20031;-77
2021/10/03 11:19:14;;;;;;;10.68;6.63;;;615.30;1305.60;;;;;;4994368;28;20018;-77
2021/10/03 11:21:41;;;;;;;10.93;6.90;;;640.00;1305.60;;;;;;4993730;28;20077;-75
2021/10/03 11:24:09;;;;;;;7.95;5.43;;;640.30;1356.80;;;;;;4994495;28;20026;-76
2021/10/03 11:26:47;;;;;;;9.23;5.45;;;640.50;1280.00;;;;;;4994118;28;20062;-75
2021/10/03 11:29:13;;;;;;;8.60;5.40;;;640.50;1280.00;;;;;;4994166;28;20026;-80
2021/10/03 11:31:51;;;;;;;9.65;5.90;;;640.70;1280.00;;;;;;4994208;28;20044;-76
2021/10/03 11:34:31;;;;;;;9.80;5.95;;;640.70;1203.20;;;;;;4994131;28;20022;-76
2021/10/03 11:36:59;;;;;;;8.73;5.65;;;640.50;1228.80;;;;;;4993129;28;20049;-76
2021/10/03 11:39:46;;;;;;;9.65;5.88;;;640.60;1177.60;;;;;;4994236;28;20553;-76
2021/10/03 11:42:32;;;;;;;8.93;5.55;;;640.80;1203.20;;;;;;4992085;28;20046;-76
2021/10/03 11:45:06;;;;;;;9.45;5.63;;;665.60;1203.20;;;;;;4993527;28;20525;-76
2021/10/03 11:47:47;;;;;;;9.90;5.22;;;665.70;1254.40;;;;;;4994081;28;20018;-76
2021/10/03 11:50:24;;;;;;;8.43;5.10;;;665.70;1177.60;;;;;;4993695;28;20099;-76
2021/10/03 11:52:52;;;;;;;8.70;4.93;;;640.90;1177.60;;;;;;4993866;28;20038;-75
2021/10/03 11:55:21;;;;;;;11.00;5.47;;;640.90;1177.60;;;;;;4994183;28;20050;-76
2021/10/03 11:57:48;;;;;;;9.88;5.50;;;665.60;1228.80;;;;;;4993733;28;20559;-76
2021/10/03 12:00:19;;;;;;;9.23;5.15;;;665.70;1203.20;;;;;;4993235;28;20106;-77
2021/10/03 12:03:03;;;;;;;9.50;5.18;;;665.70;1203.20;;;;;;4993876;28;20046;-76
2021/10/03 12:05:31;;;;;;;8.27;5.63;;;665.70;1177.60;;;;;;4993621;28;20022;-75
2021/10/03 12:08:05;;;;;;;8.23;5.28;;;665.60;1203.20;;;;;;4991987;28;20501;-75
2021/10/03 12:10:39;;;;;;;8.98;5.38;;;665.70;1203.20;;;;;;4991041;28;20088;-75
2021/10/03 12:13:26;;;;;;;7.88;5.32;;;665.90;1254.40;;;;;;4988095;28;20046;-74